OJAQ/AQJ METAR and TAF weather

Enter ICAO airport designator
Station Type Date Time Source
OJAQ METAR 2022/12/04 04:00 UTC NOAA

OJAQ 040400Z 01004KT CAVOK 15/08 Q1015 NOSIG


Station Type Date Time Source
OJAQ Decoded METAR 2022/12/04 04:00 UTC NOAA

Aqaba Airport, Jordan (OJAQ) 29-38N 035-01E 51M
Dec 03, 2022 - 11:00 PM EST / 2022.12.04 0400 UTC
Wind: from the N (010 degrees) at 5 MPH (4 KT):0
Visibility: greater than 7 mile(s):0
Temperature: 59 F (15 C)
Dew Point: 46 F (8 C)
Relative Humidity: 62%
Pressure (altimeter): 29.97 in. Hg (1015 hPa)
ob: OJAQ 040400Z 01004KT CAVOK 15/08 Q1015 NOSIG
cycle: 4

Station Type Date Time Source
OJAQ TAF 2022/12/03 18:15 UTC NOAA

TAF TAF OJAQ 031700Z 0318/0424 01012KT 8000 NSC

Example: see airport list